createdAt,value
2018-08-11T00:01:07.780Z,4.20
2018-08-11T00:03:36.337Z,2.27
2018-08-11T00:06:04.944Z,3.40
2018-08-11T00:08:33.467Z,2.90
2018-08-11T00:11:02.036Z,2.03
2018-08-11T00:13:30.551Z,2.73
2018-08-11T00:15:59.165Z,2.42
2018-08-11T00:18:27.696Z,2.30
2018-08-11T00:20:56.283Z,2.10
2018-08-11T00:23:24.844Z,2.83
2018-08-11T00:25:53.430Z,4.67
2018-08-11T00:28:23.048Z,2.67
2018-08-11T00:30:54.412Z,2.83
2018-08-11T00:33:22.982Z,2.25
2018-08-11T00:35:51.801Z,4.30
2018-08-11T00:38:20.331Z,2.80
2018-08-11T00:40:49.024Z,4.90
2018-08-11T00:43:17.607Z,2.80
2018-08-11T00:45:46.380Z,3.83
2018-08-11T00:48:15.174Z,2.58
2018-08-11T00:50:43.942Z,4.03
2018-08-11T00:53:12.626Z,3.77
2018-08-11T00:55:41.328Z,4.23
2018-08-11T00:58:09.952Z,4.97
2018-08-11T01:00:38.576Z,3.50
2018-08-11T01:03:07.164Z,3.67
2018-08-11T01:05:35.873Z,3.40
2018-08-11T01:08:04.448Z,4.17
2018-08-11T01:10:33.075Z,4.83
2018-08-11T01:13:01.604Z,3.55
2018-08-11T01:15:30.214Z,4.30
2018-08-11T01:17:58.778Z,4.85
2018-08-11T01:20:27.423Z,3.70
2018-08-11T01:22:55.958Z,4.13
2018-08-11T01:25:24.856Z,3.55
2018-08-11T01:27:53.408Z,3.70
2018-08-11T01:30:22.820Z,8.33
2018-08-11T01:32:51.374Z,5.37
2018-08-11T01:35:19.997Z,4.73
2018-08-11T01:37:48.579Z,4.13
2018-08-11T01:40:17.739Z,4.33
2018-08-11T01:42:47.413Z,6.20
2018-08-11T01:45:16.613Z,4.43
2018-08-11T01:47:45.484Z,4.93
2018-08-11T01:50:15.184Z,4.60
2018-08-11T01:52:45.081Z,4.13
2018-08-11T01:55:15.249Z,4.57
2018-08-11T01:57:43.953Z,4.60
2018-08-11T02:00:14.048Z,5.03
2018-08-11T02:02:42.755Z,3.87
2018-08-11T02:05:12.344Z,3.03
2018-08-11T02:07:42.084Z,4.45
2018-08-11T02:10:15.701Z,3.20
2018-08-11T02:12:44.683Z,4.93
2018-08-11T02:15:14.053Z,4.03
2018-08-11T02:17:42.612Z,4.40
2018-08-11T02:20:13.503Z,3.13
2018-08-11T02:22:43.115Z,3.07
2018-08-11T02:25:11.720Z,3.40
2018-08-11T02:27:40.489Z,3.87
2018-08-11T02:30:11.261Z,4.17
2018-08-11T02:32:40.004Z,2.90
2018-08-11T02:35:09.164Z,3.40
2018-08-11T02:37:37.716Z,5.53
2018-08-11T02:40:07.456Z,2.53
2018-08-11T02:42:36.277Z,3.53
2018-08-11T02:45:05.393Z,7.50
2018-08-11T02:47:34.128Z,2.73
2018-08-11T02:50:02.705Z,2.77
2018-08-11T02:52:31.272Z,5.37
2018-08-11T02:55:00.165Z,6.83
2018-08-11T02:57:28.805Z,2.67
2018-08-11T02:59:57.324Z,2.53
2018-08-11T03:02:25.956Z,2.57
2018-08-11T03:04:55.200Z,2.65
2018-08-11T03:07:23.773Z,2.73
2018-08-11T03:09:52.321Z,4.67
2018-08-11T03:12:20.872Z,4.20
2018-08-11T03:14:49.395Z,3.13
2018-08-11T03:17:17.989Z,3.10
2018-08-11T03:19:46.568Z,3.10
2018-08-11T03:22:15.164Z,4.17
2018-08-11T03:24:43.693Z,4.70
2018-08-11T03:27:12.237Z,2.80
2018-08-11T03:29:40.766Z,4.03
2018-08-11T03:32:09.359Z,2.90
2018-08-11T03:34:44.377Z,3.25
2018-08-11T03:37:12.944Z,5.67
2018-08-11T03:39:41.461Z,5.50
2018-08-11T03:42:10.051Z,4.83
2018-08-11T03:44:38.572Z,3.83
2018-08-11T03:47:07.160Z,5.43
2018-08-11T03:49:35.688Z,5.73
2018-08-11T03:52:04.280Z,3.90
2018-08-11T03:54:32.825Z,4.45
2018-08-11T03:57:01.416Z,3.30
2018-08-11T03:59:29.928Z,3.27
2018-08-11T04:01:58.484Z,3.20
2018-08-11T04:04:27.036Z,3.10
2018-08-11T04:06:55.730Z,4.95
2018-08-11T04:09:24.289Z,4.77
2018-08-11T04:11:52.809Z,3.67
2018-08-11T04:14:21.356Z,3.40
2018-08-11T04:16:49.877Z,4.10
2018-08-11T04:19:18.444Z,4.67
2018-08-11T04:21:47.160Z,2.97
2018-08-11T04:24:15.734Z,3.20
2018-08-11T04:26:44.263Z,5.63
2018-08-11T04:29:12.904Z,2.60
2018-08-11T04:31:41.421Z,3.07
2018-08-11T04:34:09.986Z,4.57
2018-08-11T04:36:38.512Z,3.77
2018-08-11T04:39:08.677Z,4.13
2018-08-11T04:41:37.876Z,6.15
2018-08-11T04:44:06.449Z,3.03
2018-08-11T04:46:34.975Z,2.73
2018-08-11T04:49:03.564Z,4.90
2018-08-11T04:51:32.098Z,2.93
2018-08-11T04:54:01.015Z,4.37
2018-08-11T04:56:29.559Z,3.07
2018-08-11T04:58:58.177Z,2.87
2018-08-11T05:01:26.708Z,3.00
2018-08-11T05:03:55.940Z,4.60
2018-08-11T05:06:24.480Z,4.47
2018-08-11T05:08:53.033Z,4.40
2018-08-11T05:11:21.611Z,5.10
2018-08-11T05:13:50.280Z,2.90
2018-08-11T05:16:18.805Z,3.90
2018-08-11T05:18:47.341Z,2.90
2018-08-11T05:21:15.869Z,2.50
2018-08-11T05:23:44.401Z,3.67
2018-08-11T05:26:12.963Z,4.47
2018-08-11T05:28:41.815Z,4.93
2018-08-11T05:31:10.328Z,3.93
2018-08-11T05:33:38.899Z,4.55
2018-08-11T05:36:07.964Z,3.13
2018-08-11T05:38:36.856Z,2.90
2018-08-11T05:41:05.443Z,2.70
2018-08-11T05:43:34.198Z,3.52
2018-08-11T05:46:02.820Z,2.33
2018-08-11T05:48:31.400Z,2.92
2018-08-11T05:50:59.916Z,2.87
2018-08-11T05:53:35.438Z,3.53
2018-08-11T05:56:04.230Z,4.40
2018-08-11T05:58:32.781Z,2.53
2018-08-11T06:01:01.336Z,5.73
2018-08-11T06:03:29.848Z,2.93
2018-08-11T06:05:58.385Z,5.17
2018-08-11T06:08:26.899Z,3.67
2018-08-11T06:10:56.169Z,2.10
2018-08-11T06:13:24.694Z,1.70
2018-08-11T06:15:53.244Z,2.13
2018-08-11T06:18:21.755Z,2.20
2018-08-11T06:20:50.292Z,2.23
2018-08-11T06:23:18.828Z,4.17
2018-08-11T06:25:47.727Z,3.93
2018-08-11T06:28:16.261Z,6.05
2018-08-11T06:30:45.096Z,2.40
2018-08-11T06:33:13.625Z,3.67
2018-08-11T06:35:42.542Z,2.00
2018-08-11T06:38:11.830Z,2.53
2018-08-11T06:40:40.512Z,2.12
2018-08-11T06:43:08.997Z,3.13
2018-08-11T06:45:37.672Z,3.00
2018-08-11T06:48:06.898Z,3.67
2018-08-11T06:50:35.484Z,4.87
2018-08-11T06:53:04.048Z,4.57
2018-08-11T06:55:32.953Z,2.47
2018-08-11T06:58:01.598Z,2.40
2018-08-11T07:00:31.888Z,5.13
2018-08-11T07:03:04.171Z,2.83
2018-08-11T07:05:34.618Z,5.15
2018-08-11T07:08:03.207Z,4.72
2018-08-11T07:10:31.740Z,3.20
2018-08-11T07:13:00.288Z,2.85
2018-08-11T07:15:28.861Z,3.27
2018-08-11T07:17:57.673Z,3.47
2018-08-11T07:20:26.304Z,4.40
2018-08-11T07:22:54.792Z,5.20
2018-08-11T07:25:23.347Z,4.77
2018-08-11T07:27:51.848Z,2.63
2018-08-11T07:30:20.459Z,2.77
2018-08-11T07:32:48.941Z,3.10
2018-08-11T07:35:17.539Z,3.03
2018-08-11T07:37:46.085Z,2.33
2018-08-11T07:40:14.643Z,2.60
2018-08-11T07:42:43.197Z,4.70
2018-08-11T07:45:11.739Z,3.83
2018-08-11T07:47:40.453Z,1.80
2018-08-11T07:50:09.027Z,3.40
2018-08-11T07:52:37.908Z,2.00
2018-08-11T07:55:06.732Z,4.50
2018-08-11T07:57:35.338Z,2.22
2018-08-11T08:00:03.936Z,3.23
2018-08-11T08:02:32.484Z,2.40
2018-08-11T08:05:03.961Z,3.43
2018-08-11T08:07:32.525Z,2.97
2018-08-11T08:10:01.146Z,4.67
2018-08-11T08:12:29.903Z,1.70
2018-08-11T08:14:59.100Z,3.22
2018-08-11T08:17:28.132Z,5.17
2018-08-11T08:19:57.708Z,3.13
2018-08-11T08:22:27.613Z,6.40
2018-08-11T08:24:56.162Z,10.93
2018-08-11T08:27:24.881Z,7.93
2018-08-11T08:29:54.241Z,4.13
2018-08-11T08:32:23.065Z,2.60
2018-08-11T08:34:51.608Z,2.30
2018-08-11T08:37:20.181Z,4.90
2018-08-11T08:39:49.324Z,2.50
2018-08-11T08:42:17.990Z,2.73
2018-08-11T08:44:46.513Z,2.23
2018-08-11T08:47:15.581Z,2.20
2018-08-11T08:49:44.105Z,2.90
2018-08-11T08:52:12.701Z,4.73
2018-08-11T08:54:41.222Z,3.27
2018-08-11T08:57:09.778Z,2.53
2018-08-11T08:59:39.928Z,2.02
2018-08-11T09:02:08.556Z,1.77
2018-08-11T09:04:37.051Z,2.13
2018-08-11T09:07:05.614Z,2.90
2018-08-11T09:09:34.116Z,1.70
2018-08-11T09:12:02.709Z,1.53
2018-08-11T09:14:31.202Z,1.67
2018-08-11T09:16:59.757Z,3.40
2018-08-11T09:19:28.285Z,2.67
2018-08-11T09:21:56.840Z,1.47
2018-08-11T09:24:25.365Z,3.77
2018-08-11T09:26:53.883Z,1.80
2018-08-11T09:29:22.441Z,5.43
2018-08-11T09:31:50.992Z,3.37
2018-08-11T09:34:19.548Z,1.60
2018-08-11T09:36:48.064Z,3.22
2018-08-11T09:39:16.688Z,1.70
2018-08-11T09:41:45.775Z,2.05
2018-08-11T09:44:14.585Z,3.50
2018-08-11T09:46:43.203Z,3.13
2018-08-11T09:49:11.891Z,3.03
2018-08-11T09:51:40.447Z,3.20
2018-08-11T09:54:12.848Z,1.60
2018-08-11T09:56:41.684Z,1.87
2018-08-11T09:59:10.277Z,2.90
2018-08-11T10:01:43.060Z,1.80
2018-08-11T10:04:11.611Z,2.50
2018-08-11T10:06:40.392Z,3.85
2018-08-11T10:09:11.052Z,2.17
2018-08-11T10:11:39.705Z,1.60
2018-08-11T10:14:08.965Z,3.83
2018-08-11T10:16:47.676Z,2.00
2018-08-11T10:19:16.670Z,2.97
2018-08-11T10:21:45.184Z,1.63
2018-08-11T10:24:13.721Z,4.00
2018-08-11T10:26:42.309Z,2.20
2018-08-11T10:29:10.841Z,1.50
2018-08-11T10:31:39.392Z,4.13
2018-08-11T10:34:09.418Z,2.47
2018-08-11T10:36:38.049Z,1.73
2018-08-11T10:39:09.815Z,3.83
2018-08-11T10:41:38.393Z,1.33
2018-08-11T10:44:07.008Z,1.37
2018-08-11T10:46:35.543Z,1.50
2018-08-11T10:49:04.672Z,2.43
2018-08-11T10:51:33.184Z,2.37
2018-08-11T10:54:02.000Z,1.23
2018-08-11T10:56:31.738Z,1.40
2018-08-11T10:59:01.609Z,2.22
2018-08-11T11:01:30.336Z,1.63
2018-08-11T11:04:00.267Z,1.20
2018-08-11T11:06:30.388Z,1.50
2018-08-11T11:08:59.055Z,1.73
2018-08-11T11:11:27.697Z,5.00
2018-08-11T11:13:56.633Z,2.13
2018-08-11T11:16:35.323Z,1.40
2018-08-11T11:19:04.100Z,3.20
2018-08-11T11:21:32.736Z,2.17
2018-08-11T11:24:06.217Z,1.60
2018-08-11T11:26:34.884Z,4.77
2018-08-11T11:29:03.459Z,1.60
2018-08-11T11:31:34.572Z,3.00
2018-08-11T11:34:04.162Z,1.23
2018-08-11T11:36:35.605Z,1.40
2018-08-11T11:39:13.592Z,2.63
2018-08-11T11:41:42.386Z,2.05
2018-08-11T11:44:10.911Z,1.57
2018-08-11T11:46:39.461Z,2.70
2018-08-11T11:49:08.017Z,1.70
2018-08-11T11:51:36.583Z,2.20
2018-08-11T11:54:05.121Z,1.60
2018-08-11T11:56:34.927Z,2.53
2018-08-11T11:59:03.512Z,2.20
2018-08-11T12:01:32.086Z,3.43
2018-08-11T12:04:01.609Z,1.25
2018-08-11T12:06:30.176Z,1.80
2018-08-11T12:08:58.729Z,1.67
2018-08-11T12:11:27.252Z,1.77
2018-08-11T12:13:55.823Z,1.33
2018-08-11T12:16:24.369Z,1.20
2018-08-11T12:18:53.056Z,3.50
2018-08-11T12:21:21.580Z,1.40
2018-08-11T12:23:54.649Z,1.50
2018-08-11T12:26:23.205Z,1.57
2018-08-11T12:28:56.638Z,1.47
2018-08-11T12:31:25.250Z,1.90
2018-08-11T12:34:00.178Z,1.40
2018-08-11T12:36:29.058Z,1.33
2018-08-11T12:38:57.633Z,1.40
2018-08-11T12:41:26.165Z,2.23
2018-08-11T12:43:54.829Z,1.50
2018-08-11T12:46:26.172Z,1.57
2018-08-11T12:48:54.864Z,1.40
2018-08-11T12:51:23.405Z,1.70
2018-08-11T12:53:51.976Z,1.90
2018-08-11T12:56:20.802Z,1.27
2018-08-11T12:58:49.388Z,1.23
2018-08-11T13:01:17.969Z,1.98
2018-08-11T13:03:46.701Z,1.20
2018-08-11T13:06:15.593Z,1.20
2018-08-11T13:08:44.192Z,1.87
2018-08-11T13:11:13.736Z,2.62
2018-08-11T13:13:42.488Z,1.83
2018-08-11T13:16:12.252Z,1.17
2018-08-11T13:18:41.242Z,1.47
2018-08-11T13:21:09.856Z,1.37
2018-08-11T13:23:39.610Z,1.80
2018-08-11T13:26:08.241Z,1.67
2018-08-11T13:28:36.793Z,1.47
2018-08-11T13:31:05.439Z,2.00
2018-08-11T13:33:34.000Z,1.87
2018-08-11T13:36:03.332Z,2.60
2018-08-11T13:38:32.702Z,2.00
2018-08-11T13:41:02.702Z,2.87
2018-08-11T13:43:32.305Z,1.20
2018-08-11T13:46:01.720Z,1.33
2018-08-11T13:48:30.340Z,2.13
2018-08-11T13:51:00.010Z,0.97
2018-08-11T13:53:28.570Z,0.90
2018-08-11T13:55:57.385Z,1.40
2018-08-11T13:58:26.513Z,2.97
2018-08-11T14:00:55.113Z,1.23
2018-08-11T14:03:25.834Z,1.43
2018-08-11T14:06:01.585Z,1.00
2018-08-11T14:08:34.769Z,1.17
2018-08-11T14:11:09.820Z,1.20
2018-08-11T14:13:43.422Z,1.30
2018-08-11T14:16:16.207Z,1.23
2018-08-11T14:18:49.930Z,1.97
2018-08-11T14:21:25.523Z,2.23
2018-08-11T14:24:03.596Z,1.20
2018-08-11T14:26:40.358Z,1.10
2018-08-11T14:29:15.334Z,1.87
2018-08-11T14:31:46.926Z,2.98
2018-08-11T14:34:22.164Z,1.20
2018-08-11T14:36:58.226Z,1.52
2018-08-11T14:39:32.940Z,1.23
2018-08-11T14:42:08.082Z,1.47
2018-08-11T14:44:46.328Z,1.50
2018-08-11T14:47:24.197Z,1.40
2018-08-11T14:50:04.453Z,1.87
2018-08-11T14:52:40.610Z,1.67
2018-08-11T14:55:21.577Z,1.73
2018-08-11T14:57:58.143Z,1.60
2018-08-11T15:00:41.070Z,1.10
2018-08-11T15:03:23.591Z,1.30
2018-08-11T15:06:05.283Z,1.40
2018-08-11T15:08:44.757Z,2.10
2018-08-11T15:11:31.231Z,2.23
2018-08-11T15:14:17.687Z,2.00
2018-08-11T15:16:50.689Z,0.88
2018-08-11T15:19:30.418Z,1.27
2018-08-11T15:22:06.234Z,3.60
2018-08-11T15:24:43.202Z,2.57
2018-08-11T15:27:18.773Z,1.20
2018-08-11T15:29:57.899Z,1.05
2018-08-11T15:32:35.823Z,1.30
2018-08-11T15:35:13.530Z,2.37
2018-08-11T15:37:53.507Z,0.93
2018-08-11T15:40:29.993Z,1.70
2018-08-11T15:43:05.893Z,1.53
2018-08-11T15:45:42.189Z,1.40
2018-08-11T15:48:17.853Z,1.10
2018-08-11T15:50:55.436Z,1.00
2018-08-11T15:53:31.409Z,0.93
2018-08-11T15:56:09.486Z,1.00
2018-08-11T15:58:46.542Z,2.33
2018-08-11T16:01:15.698Z,1.02
2018-08-11T16:03:44.265Z,1.10
2018-08-11T16:06:12.830Z,1.67
2018-08-11T16:08:52.270Z,1.15
2018-08-11T16:11:27.286Z,1.27
2018-08-11T16:14:04.384Z,1.20
2018-08-11T16:16:43.824Z,1.20
2018-08-11T16:19:26.883Z,0.90
2018-08-11T16:22:02.853Z,1.50
2018-08-11T16:24:44.591Z,1.30
2018-08-11T16:27:20.225Z,2.53
2018-08-11T16:29:59.627Z,1.30
2018-08-11T16:32:36.028Z,1.47
2018-08-11T16:35:11.125Z,1.63
2018-08-11T16:40:50.495Z,1.37
2018-08-11T16:43:27.048Z,1.20
2018-08-11T16:46:04.484Z,0.87
2018-08-11T16:48:43.583Z,0.90
2018-08-11T16:51:20.394Z,1.42
2018-08-11T16:53:59.335Z,2.33
2018-08-11T16:56:33.790Z,2.10
2018-08-11T16:59:07.708Z,1.40
2018-08-11T17:01:41.239Z,1.17
2018-08-11T17:04:17.963Z,1.57
2018-08-11T17:06:56.411Z,1.57
2018-08-11T17:09:35.513Z,1.33
2018-08-11T17:12:20.418Z,1.73
2018-08-11T17:14:58.945Z,1.20
2018-08-11T17:17:34.396Z,2.40
2018-08-11T17:20:15.513Z,1.00
2018-08-11T17:22:52.987Z,1.30
2018-08-11T17:25:29.514Z,1.97
2018-08-11T17:28:04.191Z,1.37
2018-08-11T17:30:45.606Z,2.13
2018-08-11T17:33:22.602Z,1.13
2018-08-11T17:35:57.387Z,1.67
2018-08-11T17:38:31.162Z,2.83
2018-08-11T17:41:09.810Z,1.13
2018-08-11T17:43:54.023Z,1.37
2018-08-11T17:46:37.602Z,1.50
2018-08-11T17:49:20.209Z,1.60
2018-08-11T17:51:59.285Z,1.10
2018-08-11T17:54:36.685Z,2.10
2018-08-11T17:57:12.506Z,1.63
2018-08-11T17:59:52.409Z,0.95
2018-08-11T18:02:34.051Z,0.93
2018-08-11T18:05:14.126Z,2.17
2018-08-11T18:07:48.241Z,1.77
2018-08-11T18:10:23.906Z,1.20
2018-08-11T18:13:08.334Z,1.17
2018-08-11T18:15:41.879Z,1.20
2018-08-11T18:18:21.833Z,2.40
2018-08-11T18:21:03.568Z,2.00
2018-08-11T18:23:46.414Z,1.13
2018-08-11T18:26:22.949Z,1.47
2018-08-11T18:28:58.271Z,1.50
2018-08-11T18:31:32.149Z,1.73
2018-08-11T18:34:00.688Z,1.77
2018-08-11T18:36:30.591Z,1.57
2018-08-11T18:39:04.722Z,1.57
2018-08-11T18:41:36.650Z,1.67
2018-08-11T18:44:10.370Z,1.30
2018-08-11T18:46:43.343Z,1.17
2018-08-11T18:49:17.464Z,1.62
2018-08-11T18:51:49.930Z,1.83
2018-08-11T18:54:23.762Z,1.40
2018-08-11T18:56:55.851Z,1.80
2018-08-11T18:59:28.684Z,2.73
2018-08-11T19:02:02.694Z,15.83
2018-08-11T19:04:35.918Z,40.57
2018-08-11T19:07:16.793Z,49.10
2018-08-11T19:09:50.226Z,27.40
2018-08-11T19:12:24.680Z,17.50
2018-08-11T19:14:53.349Z,9.73
2018-08-11T19:17:21.913Z,2.75
2018-08-11T19:19:50.482Z,2.30
2018-08-11T19:22:19.009Z,4.03
2018-08-11T19:24:47.580Z,13.17
2018-08-11T19:27:16.153Z,12.53
2018-08-11T19:29:51.498Z,8.47
2018-08-11T19:32:25.188Z,11.73
2018-08-11T19:35:00.733Z,7.40
2018-08-11T19:37:29.735Z,7.40
2018-08-11T19:40:00.186Z,8.63
2018-08-11T19:42:29.428Z,4.93
2018-08-11T19:44:57.988Z,3.30
2018-08-11T19:47:26.685Z,5.70
2018-08-11T19:49:55.321Z,4.00
2018-08-11T19:52:23.869Z,3.52
2018-08-11T19:54:52.452Z,3.50
2018-08-11T19:57:21.097Z,3.07
2018-08-11T19:59:49.697Z,3.40
2018-08-11T20:02:18.272Z,2.63
2018-08-11T20:04:46.864Z,3.52
2018-08-11T20:07:15.462Z,3.70
2018-08-11T20:09:44.041Z,2.10
2018-08-11T20:12:12.620Z,2.90
2018-08-11T20:14:41.433Z,3.70
2018-08-11T20:17:10.644Z,2.40
2018-08-11T20:19:39.638Z,2.60
2018-08-11T20:22:19.968Z,2.03
2018-08-11T20:24:48.768Z,1.83
2018-08-11T20:27:17.796Z,3.80
2018-08-11T20:29:46.592Z,3.83
2018-08-11T20:32:15.969Z,2.23
2018-08-11T20:34:44.753Z,2.40
2018-08-11T20:37:13.768Z,6.25
2018-08-11T20:39:42.978Z,2.20
2018-08-11T20:42:13.663Z,2.90
2018-08-11T20:44:42.268Z,1.95
2018-08-11T20:47:10.896Z,2.50
2018-08-11T20:49:39.491Z,2.90
2018-08-11T20:52:10.298Z,2.35
2018-08-11T20:54:42.881Z,2.17
2018-08-11T20:57:12.808Z,2.10
2018-08-11T20:59:41.351Z,2.50
2018-08-11T21:02:10.208Z,2.10
2018-08-11T21:04:38.929Z,2.03
2018-08-11T21:07:07.485Z,2.77
2018-08-11T21:09:39.685Z,3.33
2018-08-11T21:12:09.149Z,2.40
2018-08-11T21:14:37.752Z,3.67
2018-08-11T21:17:06.910Z,2.97
2018-08-11T21:19:35.458Z,2.83
2018-08-11T21:22:04.334Z,2.70
2018-08-11T21:24:32.886Z,3.67
2018-08-11T21:27:03.001Z,2.60
2018-08-11T21:29:31.636Z,3.70
2018-08-11T21:32:01.962Z,2.27
2018-08-11T21:34:30.559Z,3.13
2018-08-11T21:37:01.672Z,2.77
2018-08-11T21:39:30.204Z,2.47
2018-08-11T21:41:58.760Z,2.58
2018-08-11T21:44:27.304Z,2.50
2018-08-11T21:46:55.869Z,5.40
2018-08-11T21:49:24.455Z,2.67
2018-08-11T21:51:53.112Z,2.72
2018-08-11T21:54:21.677Z,2.77
2018-08-11T21:56:50.320Z,2.72
2018-08-11T21:59:18.903Z,5.28
2018-08-11T22:01:47.490Z,2.97
2018-08-11T22:04:16.048Z,2.70
2018-08-11T22:06:47.159Z,4.30
2018-08-11T22:09:15.980Z,4.17
2018-08-11T22:11:49.464Z,3.42
2018-08-11T22:14:17.972Z,3.40
2018-08-11T22:16:46.856Z,3.67
2018-08-11T22:19:18.701Z,3.00
2018-08-11T22:21:47.288Z,3.27
2018-08-11T22:24:20.343Z,3.70
2018-08-11T22:26:48.973Z,3.00
2018-08-11T22:29:17.625Z,3.13
2018-08-11T22:31:48.931Z,3.40
2018-08-11T22:34:18.669Z,2.92
2018-08-11T22:36:47.228Z,2.87
2018-08-11T22:39:15.773Z,2.93
2018-08-11T22:41:44.327Z,6.37
2018-08-11T22:44:13.096Z,3.30
2018-08-11T22:46:41.669Z,3.07
2018-08-11T22:49:11.485Z,2.62
2018-08-11T22:51:41.105Z,3.33
2018-08-11T22:54:09.664Z,3.77
2018-08-11T22:56:38.209Z,3.20
2018-08-11T22:59:06.841Z,2.93
2018-08-11T23:01:38.626Z,2.17
2018-08-11T23:04:07.224Z,2.50
2018-08-11T23:06:35.776Z,2.53
2018-08-11T23:09:06.191Z,2.83
2018-08-11T23:11:34.859Z,3.60
2018-08-11T23:14:04.569Z,2.87
2018-08-11T23:16:34.050Z,2.93
2018-08-11T23:19:02.700Z,2.83
2018-08-11T23:21:31.230Z,3.00
2018-08-11T23:23:59.909Z,3.77
2018-08-11T23:26:29.184Z,2.93
2018-08-11T23:28:57.801Z,3.13
2018-08-11T23:31:26.427Z,2.90
2018-08-11T23:33:54.984Z,2.50
2018-08-11T23:36:23.525Z,2.95
2018-08-11T23:38:52.093Z,2.63
2018-08-11T23:41:20.620Z,4.50
2018-08-11T23:43:49.197Z,2.63
2018-08-11T23:46:17.761Z,2.30
2018-08-11T23:48:46.364Z,2.60
2018-08-11T23:51:14.963Z,2.70
2018-08-11T23:53:43.591Z,2.50
2018-08-11T23:56:12.223Z,2.53
2018-08-11T23:58:41.514Z,6.03
